Challenger — WDF5742 — position and weather

sailwx.info

Track history (hours):
 
Tides and Currents Weather Stations Pressure Air Temp Water Temp Dewpoint Dewpoint Depression Visibility Wind Speed Wind Dir Waves Ship Positions

Challenger

Owner: INTRACOASTAL MARINE INC, COINJOCK, NC. More information available from US FCC via Universal Licensing System and Coast Guard Vessel Documentation Center.

Last reported at 2017-Dec-07 22:39 UTC. Time now 2017-Dec-16 11:20 UTC.
Position N 36°48' W 076°17'.
Warning: this ship's position is 8 days out of date.

Length 36 m; draft 2.8 m.

Type: Tug. MMSI: 367466730.

Date/timePositionNaut miles runAvg speedWind from/ knotsBaromVisibWave heightAir tempDewpointWater temp
2017-Dec-07 22:39N 36°48' W 076°17'1 7.1
2017-Dec-07 22:30N 36°49' W 076°18'2 4.8
2017-Dec-07 22:00N 36°52' W 076°19'2 3.2
2017-Dec-07 21:30N 36°52' W 076°21'0 0.0
2017-Dec-07 21:00N 36°52' W 076°21'1 2.8
2017-Dec-07 20:30N 36°52' W 076°19'2 2.9
2017-Dec-07 19:56N 36°53' W 076°20'4 0.6
2017-Dec-07 13:59N 36°57' W 076°20'2 4.3
2017-Dec-07 13:30N 36°55' W 076°20'2 3.3
2017-Dec-07 13:00N 36°53' W 076°20'1 2.9
2017-Dec-07 12:30N 36°52' W 076°19'4 7.3
2017-Dec-07 12:00N 36°48' W 076°17'  
2017-Dec-04 05:50N 36°49' W 076°17'0 1.3
2017-Dec-04 05:31N 36°48' W 076°17'1 2.1
2017-Dec-04 05:01N 36°49' W 076°17'3 6.1
2017-Dec-04 04:31N 36°52' W 076°19'69 7.4
2017-Dec-03 19:11N 38°01' W 076°13'1 7.2
2017-Dec-03 18:58N 38°03' W 076°14'48 7.2
2017-Dec-03 12:18N 38°50' W 076°27'2 7.9
2017-Dec-03 12:00N 38°52' W 076°26'4 7.7
2017-Dec-03 11:31N 38°56' W 076°25'4 7.6
2017-Dec-03 11:00N 38°59' W 076°23'3 6.8
2017-Dec-03 10:31N 39°03' W 076°23'3 7.0
2017-Dec-03 10:01N 39°06' W 076°24'3 6.8
2017-Dec-03 09:30N 39°09' W 076°25'3 6.7
2017-Dec-03 09:01N 39°11' W 076°28'3 6.7
2017-Dec-03 08:31N 39°13' W 076°32'0 0.9
2017-Dec-03 08:01N 39°13' W 076°33'2 3.0
2017-Dec-03 07:29N 39°13' W 076°35'0 0.1
2017-Dec-03 07:00N 39°13' W 076°35'1 2.5
2017-Dec-03 06:31N 39°13' W 076°33'3 6.0
2017-Dec-03 05:59N 39°12' W 076°30'4 8.6
2017-Dec-03 05:29N 39°09' W 076°25'1 3.0
2017-Dec-03 05:00N 39°08' W 076°24'4 5.7
2017-Dec-03 04:20N 39°04' W 076°23'2 4.1
2017-Dec-03 03:57N 39°03' W 076°23'11 5.1
2017-Dec-03 01:53N 38°52' W 076°26'115 5.9
2017-Dec-02 06:19N 36°57' W 076°20'2 6.7
2017-Dec-02 06:01N 36°55' W 076°20'3 6.3
2017-Dec-02 05:30N 36°52' W 076°20'2 4.4
2017-Dec-02 05:00N 36°51' W 076°18'3 5.6
2017-Dec-02 04:31N 36°48' W 076°18'2 4.8
2017-Dec-02 04:01N 36°45' W 076°18'0 0.1
2017-Dec-02 03:31N 36°45' W 076°18'0 0.0
2017-Dec-02 03:01N 36°45' W 076°18'0 0.0
2017-Dec-02 02:31N 36°45' W 076°18'0 0.3
2017-Dec-02 02:01N 36°45' W 076°18'2 4.2
2017-Dec-02 01:30N 36°48' W 076°18'1 2.4
2017-Dec-02 01:00N 36°49' W 076°17'0 0.0
2017-Dec-02 00:30N 36°49' W 076°17'0 0.0
2017-Dec-02 00:00N 36°49' W 076°17'0 0.0
2017-Dec-01 23:30N 36°49' W 076°17'0 0.0
2017-Dec-01 23:00N 36°49' W 076°17'0 0.0
2017-Dec-01 22:30N 36°49' W 076°17'0 0.0
2017-Dec-01 22:00N 36°49' W 076°17'0 0.0
2017-Dec-01 21:31N 36°49' W 076°17'0 0.0
2017-Dec-01 21:00N 36°49' W 076°17'0 0.0
2017-Dec-01 20:30N 36°49' W 076°17'0 0.0
2017-Dec-01 20:01N 36°49' W 076°17'0 0.0
2017-Dec-01 19:30N 36°49' W 076°17'1 2.0
2017-Dec-01 19:00N 36°49' W 076°18'1 2.2
2017-Dec-01 18:30N 36°50' W 076°17'0 0.1
2017-Dec-01 18:01N 36°50' W 076°17'0 0.1
2017-Dec-01 17:30N 36°50' W 076°17'0 0.0
2017-Dec-01 17:00N 36°50' W 076°17'0 0.0
2017-Dec-01 16:30N 36°50' W 076°17'0 0.0
2017-Dec-01 16:00N 36°50' W 076°17'0 0.0
2017-Dec-01 15:30N 36°50' W 076°17'0 0.3
2017-Dec-01 15:00N 36°50' W 076°17'0 0.1
2017-Dec-01 14:30N 36°50' W 076°17'0 0.2
2017-Dec-01 14:00N 36°50' W 076°17'2 3.8
2017-Dec-01 13:30N 36°49' W 076°17'0 0.0
2017-Dec-01 13:00N 36°49' W 076°17'0 0.0
2017-Dec-01 12:30N 36°49' W 076°17'0 0.0
2017-Nov-29 10:01N 36°49' W 076°17'0 0.0
2017-Nov-29 10:00N 36°49' W 076°17'0 0.0
2017-Nov-29 09:30N 36°49' W 076°17'0 0.0
2017-Nov-29 09:00N 36°49' W 076°17'0 0.0
2017-Nov-29 08:30N 36°49' W 076°17'0 0.0
2017-Nov-29 08:00N 36°49' W 076°17'0 0.0
2017-Nov-29 07:30N 36°49' W 076°17'3 5.5
2017-Nov-29 07:00N 36°51' W 076°18'12 5.7
2017-Nov-29 04:48N 36°58' W 076°05'3 9.3
2017-Nov-29 04:30N 36°57' W 076°02'4 8.8
2017-Nov-29 04:00N 36°54' W 075°58'9 0.3
2017-Nov-28 00:13N 36°46' W 075°54'1 4.6
2017-Nov-28 00:00N 36°47' W 075°54'2 4.5
2017-Nov-27 23:27N 36°49' W 075°55'2 4.4
2017-Nov-27 23:00N 36°51' W 075°56'  
Track history (hours):
 
Tides and Currents Weather Stations Pressure Air Temp Water Temp Dewpoint Dewpoint Depression Visibility Wind Speed Wind Dir Waves Ship Positions

Challenger

Owner: INTRACOASTAL MARINE INC, COINJOCK, NC. More information available from US FCC via Universal Licensing System and Coast Guard Vessel Documentation Center.

Last reported at 2017-Dec-07 22:39 UTC. Time now 2017-Dec-16 11:20 UTC.
Position N 36°48' W 076°17'.
Warning: this ship's position is 8 days out of date.

Length 36 m; draft 2.8 m.

Type: Tug. MMSI: 367466730.

Date/timePositionNaut miles runAvg speedWind from/ knotsBaromVisibWave heightAir tempDewpointWater temp
2017-Dec-07 22:39N 36°48' W 076°17'1 7.1
2017-Dec-07 22:30N 36°49' W 076°18'2 4.8
2017-Dec-07 22:00N 36°52' W 076°19'2 3.2
2017-Dec-07 21:30N 36°52' W 076°21'0 0.0
2017-Dec-07 21:00N 36°52' W 076°21'1 2.8
2017-Dec-07 20:30N 36°52' W 076°19'2 2.9
2017-Dec-07 19:56N 36°53' W 076°20'4 0.6
2017-Dec-07 13:59N 36°57' W 076°20'2 4.3
2017-Dec-07 13:30N 36°55' W 076°20'2 3.3
2017-Dec-07 13:00N 36°53' W 076°20'1 2.9
2017-Dec-07 12:30N 36°52' W 076°19'4 7.3
2017-Dec-07 12:00N 36°48' W 076°17'  
2017-Dec-04 05:50N 36°49' W 076°17'0 1.3
2017-Dec-04 05:31N 36°48' W 076°17'1 2.1
2017-Dec-04 05:01N 36°49' W 076°17'3 6.1
2017-Dec-04 04:31N 36°52' W 076°19'69 7.4
2017-Dec-03 19:11N 38°01' W 076°13'1 7.2
2017-Dec-03 18:58N 38°03' W 076°14'48 7.2
2017-Dec-03 12:18N 38°50' W 076°27'2 7.9
2017-Dec-03 12:00N 38°52' W 076°26'4 7.7
2017-Dec-03 11:31N 38°56' W 076°25'4 7.6
2017-Dec-03 11:00N 38°59' W 076°23'3 6.8
2017-Dec-03 10:31N 39°03' W 076°23'3 7.0
2017-Dec-03 10:01N 39°06' W 076°24'3 6.8
2017-Dec-03 09:30N 39°09' W 076°25'3 6.7
2017-Dec-03 09:01N 39°11' W 076°28'3 6.7
2017-Dec-03 08:31N 39°13' W 076°32'0 0.9
2017-Dec-03 08:01N 39°13' W 076°33'2 3.0
2017-Dec-03 07:29N 39°13' W 076°35'0 0.1
2017-Dec-03 07:00N 39°13' W 076°35'1 2.5
2017-Dec-03 06:31N 39°13' W 076°33'3 6.0
2017-Dec-03 05:59N 39°12' W 076°30'4 8.6
2017-Dec-03 05:29N 39°09' W 076°25'1 3.0
2017-Dec-03 05:00N 39°08' W 076°24'4 5.7
2017-Dec-03 04:20N 39°04' W 076°23'2 4.1
2017-Dec-03 03:57N 39°03' W 076°23'11 5.1
2017-Dec-03 01:53N 38°52' W 076°26'115 5.9
2017-Dec-02 06:19N 36°57' W 076°20'2 6.7
2017-Dec-02 06:01N 36°55' W 076°20'3 6.3
2017-Dec-02 05:30N 36°52' W 076°20'2 4.4
2017-Dec-02 05:00N 36°51' W 076°18'3 5.6
2017-Dec-02 04:31N 36°48' W 076°18'2 4.8
2017-Dec-02 04:01N 36°45' W 076°18'0 0.1
2017-Dec-02 03:31N 36°45' W 076°18'0 0.0
2017-Dec-02 03:01N 36°45' W 076°18'0 0.0
2017-Dec-02 02:31N 36°45' W 076°18'0 0.3
2017-Dec-02 02:01N 36°45' W 076°18'2 4.2
2017-Dec-02 01:30N 36°48' W 076°18'1 2.4
2017-Dec-02 01:00N 36°49' W 076°17'0 0.0
2017-Dec-02 00:30N 36°49' W 076°17'0 0.0
2017-Dec-02 00:00N 36°49' W 076°17'0 0.0
2017-Dec-01 23:30N 36°49' W 076°17'0 0.0
2017-Dec-01 23:00N 36°49' W 076°17'0 0.0
2017-Dec-01 22:30N 36°49' W 076°17'0 0.0
2017-Dec-01 22:00N 36°49' W 076°17'0 0.0
2017-Dec-01 21:31N 36°49' W 076°17'0 0.0
2017-Dec-01 21:00N 36°49' W 076°17'0 0.0
2017-Dec-01 20:30N 36°49' W 076°17'0 0.0
2017-Dec-01 20:01N 36°49' W 076°17'0 0.0
2017-Dec-01 19:30N 36°49' W 076°17'1 2.0
2017-Dec-01 19:00N 36°49' W 076°18'1 2.2
2017-Dec-01 18:30N 36°50' W 076°17'0 0.1
2017-Dec-01 18:01N 36°50' W 076°17'0 0.1
2017-Dec-01 17:30N 36°50' W 076°17'0 0.0
2017-Dec-01 17:00N 36°50' W 076°17'0 0.0
2017-Dec-01 16:30N 36°50' W 076°17'0 0.0
2017-Dec-01 16:00N 36°50' W 076°17'0 0.0
2017-Dec-01 15:30N 36°50' W 076°17'0 0.3
2017-Dec-01 15:00N 36°50' W 076°17'0 0.1
2017-Dec-01 14:30N 36°50' W 076°17'0 0.2
2017-Dec-01 14:00N 36°50' W 076°17'2 3.8
2017-Dec-01 13:30N 36°49' W 076°17'0 0.0
2017-Dec-01 13:00N 36°49' W 076°17'0 0.0
2017-Dec-01 12:30N 36°49' W 076°17'0 0.0
2017-Nov-29 10:01N 36°49' W 076°17'0 0.0
2017-Nov-29 10:00N 36°49' W 076°17'0 0.0
2017-Nov-29 09:30N 36°49' W 076°17'0 0.0
2017-Nov-29 09:00N 36°49' W 076°17'0 0.0
2017-Nov-29 08:30N 36°49' W 076°17'0 0.0
2017-Nov-29 08:00N 36°49' W 076°17'0 0.0
2017-Nov-29 07:30N 36°49' W 076°17'3 5.5
2017-Nov-29 07:00N 36°51' W 076°18'12 5.7
2017-Nov-29 04:48N 36°58' W 076°05'3 9.3
2017-Nov-29 04:30N 36°57' W 076°02'4 8.8
2017-Nov-29 04:00N 36°54' W 075°58'9 0.3
2017-Nov-28 00:13N 36°46' W 075°54'1 4.6
2017-Nov-28 00:00N 36°47' W 075°54'2 4.5
2017-Nov-27 23:27N 36°49' W 075°55'2 4.4
2017-Nov-27 23:00N 36°51' W 075°56'  

Dump ship's entire track history